createdAt,value
2023-05-01T00:01:31.990Z,80.65
2023-05-01T00:03:33.845Z,81.09
2023-05-01T00:05:35.495Z,81.29
2023-05-01T00:07:37.010Z,81.12
2023-05-01T00:09:38.750Z,81.52
2023-05-01T00:11:40.242Z,81.55
2023-05-01T00:13:42.083Z,82.07
2023-05-01T00:15:44.966Z,81.68
2023-05-01T00:17:46.419Z,81.88
2023-05-01T00:19:51.593Z,81.88
2023-05-01T00:21:53.346Z,82.66
2023-05-01T00:23:55.030Z,82.82
2023-05-01T00:25:56.676Z,82.66
2023-05-01T00:27:58.317Z,83.00
2023-05-01T00:29:59.799Z,82.99
2023-05-01T00:32:02.800Z,82.82
2023-05-01T00:34:04.312Z,83.06
2023-05-01T00:36:06.277Z,83.36
2023-05-01T00:38:07.980Z,82.89
2023-05-01T00:40:09.925Z,82.31
2023-05-01T00:42:11.407Z,82.90
2023-05-01T00:44:12.900Z,83.38
2023-05-01T00:46:14.807Z,83.37
2023-05-01T00:48:18.086Z,82.85
2023-05-01T00:50:20.721Z,82.83
2023-05-01T00:52:24.357Z,82.64
2023-05-01T00:54:26.659Z,82.69
2023-05-01T00:56:28.357Z,83.19
2023-05-01T00:58:30.160Z,83.56
2023-05-01T01:00:32.770Z,84.07
2023-05-01T01:02:34.323Z,84.43
2023-05-01T01:04:37.268Z,83.94
2023-05-01T01:06:49.278Z,84.26
2023-05-01T01:09:00.157Z,84.29
2023-05-01T01:11:14.282Z,83.90
2023-05-01T01:13:23.159Z,83.83
2023-05-01T01:15:33.880Z,83.76
2023-05-01T01:17:42.291Z,84.60
2023-05-01T01:20:04.476Z,84.65
2023-05-01T01:22:12.215Z,84.32
2023-05-01T01:24:46.215Z,84.40
2023-05-01T01:27:26.673Z,84.76
2023-05-01T01:29:43.869Z,84.11
2023-05-01T01:31:57.260Z,84.32
2023-05-01T01:34:07.969Z,84.78
2023-05-01T01:36:15.882Z,84.73
2023-05-01T01:38:22.489Z,84.38
2023-05-01T01:40:31.957Z,84.70
2023-05-01T01:42:37.611Z,84.94
2023-05-01T01:44:43.251Z,85.11
2023-05-01T01:46:45.868Z,84.97
2023-05-01T01:48:50.865Z,85.22
2023-05-01T01:50:57.031Z,85.30
2023-05-01T01:53:01.504Z,84.83
2023-05-01T01:55:08.451Z,85.19
2023-05-01T01:57:13.489Z,85.32
2023-05-01T01:59:16.486Z,85.87
2023-05-01T02:01:19.525Z,85.93
2023-05-01T02:03:23.459Z,85.93
2023-05-01T02:05:26.814Z,86.48
2023-05-01T02:07:31.451Z,86.74
2023-05-01T02:09:35.250Z,86.82
2023-05-01T02:11:38.057Z,86.58
2023-05-01T02:13:42.490Z,87.17
2023-05-01T02:15:45.192Z,87.91
2023-05-01T02:17:48.600Z,88.92
2023-05-01T02:19:51.336Z,87.89
2023-05-01T02:21:54.561Z,88.88
2023-05-01T02:24:00.395Z,89.29
2023-05-01T02:26:04.236Z,89.11
2023-05-01T02:28:08.402Z,89.07
2023-05-01T02:30:11.224Z,89.09
2023-05-01T02:32:13.008Z,88.94
2023-05-01T02:34:14.522Z,88.99
2023-05-01T02:36:16.345Z,88.94
2023-05-01T02:38:18.751Z,88.65
2023-05-01T02:40:21.763Z,89.28
2023-05-01T02:42:25.238Z,89.12
2023-05-01T02:44:28.956Z,89.14
2023-05-01T02:46:33.076Z,88.65
2023-05-01T02:48:36.046Z,88.83
2023-05-01T02:50:38.751Z,88.25
2023-05-01T02:52:40.598Z,87.92
2023-05-01T02:54:43.121Z,88.09
2023-05-01T02:56:46.100Z,87.41
2023-05-01T02:58:47.981Z,87.38
2023-05-01T03:00:49.789Z,87.48
2023-05-01T03:02:51.659Z,87.45
2023-05-01T03:04:53.163Z,87.54
2023-05-01T03:06:54.713Z,87.72
2023-05-01T03:08:56.217Z,87.69
2023-05-01T03:10:57.712Z,87.88
2023-05-01T03:13:00.591Z,88.04
2023-05-01T03:15:02.062Z,88.21
2023-05-01T03:17:03.660Z,88.35
2023-05-01T03:19:05.220Z,88.11
2023-05-01T03:21:06.964Z,87.56
2023-05-01T03:23:08.439Z,87.56
2023-05-01T03:25:10.121Z,87.66
2023-05-01T03:27:12.299Z,88.32
2023-05-01T03:29:15.131Z,88.77
2023-05-01T03:31:16.580Z,88.42
2023-05-01T03:33:18.041Z,88.69
2023-05-01T03:35:20.015Z,88.54
2023-05-01T03:37:21.508Z,88.20
2023-05-01T03:39:23.014Z,87.54
2023-05-01T03:41:24.724Z,87.38
2023-05-01T03:43:26.222Z,87.56
2023-05-01T03:45:29.034Z,87.61
2023-05-01T03:47:30.657Z,87.68
2023-05-01T03:49:32.143Z,87.56
2023-05-01T03:51:33.622Z,88.03
2023-05-01T03:53:35.172Z,87.89
2023-05-01T03:55:36.699Z,88.11
2023-05-01T03:57:38.265Z,87.42
2023-05-01T03:59:39.749Z,87.92
2023-05-01T04:01:42.743Z,88.00
2023-05-01T04:03:44.341Z,86.88
2023-05-01T04:05:46.022Z,87.46
2023-05-01T04:07:47.619Z,87.28
2023-05-01T04:09:49.128Z,87.08
2023-05-01T04:11:50.644Z,87.43
2023-05-01T04:13:52.190Z,86.95
2023-05-01T04:15:53.710Z,87.19
2023-05-01T04:17:56.750Z,87.40
2023-05-01T04:19:58.540Z,86.60
2023-05-01T04:22:00.195Z,87.29
2023-05-01T04:24:01.872Z,87.75
2023-05-01T04:26:03.373Z,86.92
2023-05-01T04:28:05.207Z,87.22
2023-05-01T04:30:07.761Z,86.30
2023-05-01T04:32:09.275Z,86.43
2023-05-01T04:34:12.082Z,86.43
2023-05-01T04:36:13.719Z,86.25
2023-05-01T04:38:15.208Z,86.29
2023-05-01T04:40:17.394Z,87.25
2023-05-01T04:42:18.865Z,87.09
2023-05-01T04:44:20.398Z,87.43
2023-05-01T04:46:22.043Z,87.71
2023-05-01T04:48:23.792Z,88.13
2023-05-01T04:50:27.124Z,89.33
2023-05-01T04:52:28.628Z,88.97
2023-05-01T04:54:30.225Z,89.66
2023-05-01T04:56:31.844Z,89.73
2023-05-01T04:58:33.385Z,90.30
2023-05-01T05:00:34.903Z,90.94
2023-05-01T05:02:36.534Z,91.50
2023-05-01T05:04:38.217Z,91.85
2023-05-01T05:06:41.100Z,92.90
2023-05-01T05:08:42.667Z,92.02
2023-05-01T05:10:44.206Z,92.69
2023-05-01T05:12:45.741Z,92.50
2023-05-01T05:14:47.197Z,93.99
2023-05-01T05:16:48.797Z,94.23
2023-05-01T05:18:50.447Z,93.00
2023-05-01T05:20:51.997Z,93.40
2023-05-01T05:22:54.906Z,94.31
2023-05-01T05:24:56.426Z,94.99
2023-05-01T05:26:57.920Z,95.44
2023-05-01T05:28:59.423Z,95.84
2023-05-01T05:31:00.916Z,96.25
2023-05-01T05:33:02.996Z,97.34
2023-05-01T05:35:05.468Z,97.34
2023-05-01T05:37:06.973Z,98.80
2023-05-01T05:39:09.854Z,100.00
2023-05-01T05:41:11.366Z,99.25
2023-05-01T05:43:12.835Z,99.60
2023-05-01T05:45:14.534Z,99.79
2023-05-01T05:47:15.987Z,100.00
2023-05-01T05:49:17.517Z,100.00
2023-05-01T05:51:18.977Z,100.00
2023-05-01T05:53:20.799Z,100.00
2023-05-01T05:55:23.732Z,100.00
2023-05-01T05:57:25.182Z,100.00
2023-05-01T05:59:26.633Z,100.00
2023-05-01T06:01:28.112Z,100.00
2023-05-01T06:03:29.952Z,100.00
2023-05-01T06:05:31.749Z,99.01
2023-05-01T06:07:33.319Z,98.86
2023-05-01T06:09:34.812Z,97.03
2023-05-01T06:11:37.663Z,96.19
2023-05-01T06:13:39.152Z,96.31
2023-05-01T06:15:41.213Z,94.13
2023-05-01T06:17:43.025Z,93.98
2023-05-01T06:19:44.655Z,92.55
2023-05-01T06:21:46.119Z,92.74
2023-05-01T06:23:47.605Z,92.68
2023-05-01T06:25:49.121Z,92.94
2023-05-01T06:27:52.205Z,92.06
2023-05-01T06:29:53.869Z,90.26
2023-05-01T06:31:55.638Z,89.97
2023-05-01T06:33:57.578Z,90.21
2023-05-01T06:35:59.056Z,90.75
2023-05-01T06:38:00.552Z,92.36
2023-05-01T06:40:02.038Z,90.33
2023-05-01T06:42:03.660Z,88.67
2023-05-01T06:44:06.467Z,88.02
2023-05-01T06:46:07.943Z,86.34
2023-05-01T06:48:09.770Z,84.74
2023-05-01T06:50:11.590Z,84.65
2023-05-01T06:52:13.089Z,85.67
2023-05-01T06:54:15.108Z,85.61
2023-05-01T06:56:16.632Z,88.39
2023-05-01T06:58:23.887Z,86.56
2023-05-01T07:00:27.838Z,84.30
2023-05-01T07:02:29.463Z,83.80
2023-05-01T07:04:31.786Z,83.05
2023-05-01T07:06:33.623Z,85.17
2023-05-01T07:08:35.162Z,86.37
2023-05-01T07:10:36.793Z,87.23
2023-05-01T07:12:38.284Z,88.18
2023-05-01T07:14:39.737Z,86.41
2023-05-01T07:16:42.612Z,85.57
2023-05-01T07:18:44.159Z,85.86
2023-05-01T07:20:45.644Z,85.67
2023-05-01T07:22:47.247Z,85.41
2023-05-01T07:24:48.753Z,85.67
2023-05-01T07:26:50.254Z,86.62
2023-05-01T07:28:51.818Z,87.09
2023-05-01T07:30:53.302Z,86.81
2023-05-01T07:32:56.210Z,87.26
2023-05-01T07:34:58.646Z,85.54
2023-05-01T07:37:00.183Z,88.30
2023-05-01T07:39:01.692Z,87.14
2023-05-01T07:41:03.224Z,87.64
2023-05-01T07:43:04.869Z,88.43
2023-05-01T07:45:07.531Z,90.73
2023-05-01T07:47:09.011Z,91.18
2023-05-01T07:49:11.938Z,91.13
2023-05-01T07:51:13.814Z,90.80
2023-05-01T07:53:15.290Z,90.14
2023-05-01T07:55:17.024Z,89.39
2023-05-01T07:57:19.044Z,90.39
2023-05-01T07:59:20.544Z,90.25
2023-05-01T08:01:22.122Z,90.19
2023-05-01T08:03:23.819Z,89.57
2023-05-01T08:05:26.913Z,88.11
2023-05-01T08:07:28.370Z,86.56
2023-05-01T08:09:30.140Z,85.30
2023-05-01T08:11:31.659Z,83.86
2023-05-01T08:13:33.132Z,83.70
2023-05-01T08:15:34.614Z,82.79
2023-05-01T08:17:36.756Z,84.85
2023-05-01T08:19:38.335Z,84.66
2023-05-01T08:21:41.239Z,85.48
2023-05-01T08:23:42.721Z,85.54
2023-05-01T08:25:44.449Z,84.10
2023-05-01T08:27:46.079Z,82.96
2023-05-01T08:29:47.748Z,82.45
2023-05-01T08:31:49.359Z,82.09
2023-05-01T08:33:50.888Z,82.92
2023-05-01T08:35:52.733Z,82.07
2023-05-01T08:37:55.600Z,81.30
2023-05-01T08:39:57.290Z,80.46
2023-05-01T08:41:59.305Z,81.88
2023-05-01T08:44:01.241Z,79.83
2023-05-01T08:46:07.729Z,79.07
2023-05-01T08:48:11.017Z,79.74
2023-05-01T08:50:14.079Z,78.02
2023-05-01T08:52:15.746Z,77.05
2023-05-01T08:54:20.347Z,77.33
2023-05-01T08:56:22.168Z,77.75
2023-05-01T08:58:24.866Z,75.64
2023-05-01T09:00:27.274Z,75.05
2023-05-01T09:02:28.983Z,74.63
2023-05-01T09:04:32.114Z,75.13
2023-05-01T09:06:33.665Z,73.42
2023-05-01T09:08:35.294Z,70.17
2023-05-01T09:10:45.067Z,68.95
2023-05-01T09:12:54.118Z,69.48
2023-05-01T09:14:56.889Z,69.50
2023-05-01T09:16:58.745Z,69.16
2023-05-01T09:19:00.352Z,69.33
2023-05-01T09:21:02.105Z,70.06
2023-05-01T09:23:03.888Z,70.57
2023-05-01T09:25:06.356Z,70.25
2023-05-01T09:27:10.862Z,69.02
2023-05-01T09:29:12.484Z,69.52
2023-05-01T09:31:24.608Z,69.59
2023-05-01T09:33:26.339Z,68.98
2023-05-01T09:35:28.061Z,69.28
2023-05-01T09:37:31.026Z,68.89
2023-05-01T09:39:32.671Z,69.91
2023-05-01T09:41:34.187Z,70.14
2023-05-01T09:43:37.715Z,69.36
2023-05-01T09:45:39.200Z,67.78
2023-05-01T09:47:41.257Z,67.75
2023-05-01T09:49:46.900Z,66.79
2023-05-01T09:51:49.283Z,66.79
2023-05-01T09:53:51.479Z,67.19
2023-05-01T09:56:00.892Z,66.87
2023-05-01T09:58:02.382Z,66.06
2023-05-01T10:00:06.532Z,65.61
2023-05-01T10:02:08.156Z,66.94
2023-05-01T10:04:10.342Z,66.42
2023-05-01T10:06:12.267Z,65.75
2023-05-01T10:08:14.925Z,65.87
2023-05-01T10:10:18.574Z,66.05
2023-05-01T10:12:23.303Z,66.43
2023-05-01T10:14:24.782Z,66.81
2023-05-01T10:16:30.166Z,65.58
2023-05-01T10:18:33.674Z,64.75
2023-05-01T10:20:35.535Z,64.67
2023-05-01T10:22:37.066Z,64.88
2023-05-01T10:24:38.735Z,64.91
2023-05-01T10:26:41.614Z,64.43
2023-05-01T10:28:44.369Z,64.43
2023-05-01T10:30:46.456Z,65.85
2023-05-01T10:32:49.405Z,66.79
2023-05-01T10:34:55.209Z,66.58
2023-05-01T10:37:01.593Z,66.36
2023-05-01T10:39:03.190Z,65.88
2023-05-01T10:41:04.796Z,65.48
2023-05-01T10:43:17.383Z,65.53
2023-05-01T10:45:28.638Z,65.93
2023-05-01T10:47:45.613Z,66.42
2023-05-01T10:50:05.189Z,65.97
2023-05-01T10:52:06.754Z,64.96
2023-05-01T10:54:24.212Z,65.16
2023-05-01T10:56:41.911Z,65.21
2023-05-01T10:58:58.369Z,65.53
2023-05-01T11:01:28.625Z,65.84
2023-05-01T11:03:36.413Z,66.00
2023-05-01T11:06:12.252Z,66.32
2023-05-01T11:08:29.495Z,66.94
2023-05-01T11:10:30.994Z,67.52
2023-05-01T11:12:51.843Z,66.67
2023-05-01T11:15:06.418Z,68.59
2023-05-01T11:17:07.908Z,69.08
2023-05-01T11:19:11.082Z,68.98
2023-05-01T11:21:15.248Z,69.79
2023-05-01T11:23:23.173Z,71.61
2023-05-01T11:25:26.695Z,72.92
2023-05-01T11:27:28.594Z,73.00
2023-05-01T11:29:31.627Z,73.82
2023-05-01T11:31:33.416Z,74.52
2023-05-01T11:33:35.050Z,75.16
2023-05-01T11:35:37.210Z,76.91
2023-05-01T11:37:41.384Z,80.71
2023-05-01T11:39:49.906Z,83.46
2023-05-01T11:42:06.950Z,83.75
2023-05-01T11:44:11.208Z,82.92
2023-05-01T11:46:14.399Z,83.30
2023-05-01T11:48:15.997Z,83.49
2023-05-01T11:50:17.507Z,83.78
2023-05-01T11:52:19.196Z,82.29
2023-05-01T11:54:22.054Z,81.97
2023-05-01T11:56:27.086Z,81.07
2023-05-01T11:58:35.404Z,82.07
2023-05-01T12:00:38.515Z,80.59
2023-05-01T12:02:40.255Z,80.10
2023-05-01T12:04:42.039Z,78.18
2023-05-01T12:06:44.876Z,77.14
2023-05-01T12:08:49.690Z,75.70
2023-05-01T12:10:53.961Z,76.90
2023-05-01T12:12:55.524Z,76.11
2023-05-01T12:14:57.163Z,77.30
2023-05-01T12:16:59.651Z,77.60
2023-05-01T12:19:01.577Z,77.41
2023-05-01T12:21:03.442Z,76.80
2023-05-01T12:23:05.551Z,76.34
2023-05-01T12:25:07.834Z,76.18
2023-05-01T12:27:10.761Z,77.27
2023-05-01T12:29:13.103Z,77.52
2023-05-01T12:31:15.807Z,77.26
2023-05-01T12:33:19.287Z,78.60
2023-05-01T12:35:21.381Z,81.03
2023-05-01T12:37:22.885Z,82.06
2023-05-01T12:39:24.762Z,81.44
2023-05-01T12:41:33.653Z,81.37
2023-05-01T12:43:37.566Z,81.66
2023-05-01T12:45:39.621Z,82.41
2023-05-01T12:47:41.184Z,83.55
2023-05-01T12:49:42.879Z,83.88
2023-05-01T12:51:47.078Z,85.31
2023-05-01T12:53:48.816Z,87.41
2023-05-01T12:55:51.567Z,89.91
2023-05-01T12:57:53.927Z,95.47
2023-05-01T13:00:01.084Z,93.58
2023-05-01T13:02:04.680Z,93.72
2023-05-01T13:04:06.473Z,95.21
2023-05-01T13:06:08.306Z,98.99
2023-05-01T13:08:09.845Z,100.00
2023-05-01T13:10:11.615Z,100.00
2023-05-01T13:12:13.447Z,100.00
2023-05-01T13:14:15.426Z,100.00
2023-05-01T13:16:18.621Z,100.00
2023-05-01T13:18:20.331Z,100.00
2023-05-01T13:20:26.366Z,100.00
2023-05-01T13:22:29.879Z,100.00
2023-05-01T13:24:39.280Z,100.00
2023-05-01T13:26:40.783Z,100.00
2023-05-01T13:28:43.818Z,100.00
2023-05-01T13:30:45.430Z,100.00
2023-05-01T13:32:48.741Z,100.00
2023-05-01T13:34:51.052Z,100.00
2023-05-01T13:36:52.550Z,100.00
2023-05-01T13:38:55.140Z,100.00
2023-05-01T13:40:56.918Z,100.00
2023-05-01T13:42:58.460Z,100.00
2023-05-01T13:45:00.040Z,100.00
2023-05-01T13:47:02.824Z,100.00
2023-05-01T13:49:06.452Z,100.00
2023-05-01T13:51:08.182Z,100.00
2023-05-01T13:53:09.938Z,100.00
2023-05-01T13:55:12.229Z,100.00
2023-05-01T13:57:13.738Z,100.00
2023-05-01T13:59:15.492Z,100.00
2023-05-01T14:01:18.409Z,96.43
2023-05-01T14:03:20.445Z,90.43
2023-05-01T14:05:27.820Z,92.58
2023-05-01T14:07:29.267Z,87.79
2023-05-01T14:09:35.663Z,82.10
2023-05-01T14:11:43.346Z,82.21
2023-05-01T14:13:45.748Z,80.49
2023-05-01T14:15:47.670Z,84.25
2023-05-01T14:17:50.505Z,84.66
2023-05-01T14:19:52.479Z,82.76
2023-05-01T14:21:55.293Z,84.58
2023-05-01T14:23:56.992Z,87.00
2023-05-01T14:25:58.530Z,88.35
2023-05-01T14:28:01.270Z,90.43
2023-05-01T14:30:06.295Z,90.28
2023-05-01T14:32:08.935Z,89.27
2023-05-01T14:34:15.282Z,89.92
2023-05-01T14:36:18.761Z,88.75
2023-05-01T14:38:25.248Z,87.61
2023-05-01T14:40:27.356Z,87.04
2023-05-01T14:42:29.276Z,87.68
2023-05-01T14:44:30.892Z,85.43
2023-05-01T14:46:33.604Z,85.18
2023-05-01T14:48:36.376Z,85.44
2023-05-01T14:50:38.598Z,83.87
2023-05-01T14:52:40.583Z,78.92
2023-05-01T14:54:45.644Z,81.52
2023-05-01T14:56:48.131Z,84.87
2023-05-01T14:58:49.823Z,89.36
2023-05-01T15:00:51.286Z,93.02
2023-05-01T15:02:53.009Z,99.11
2023-05-01T15:04:54.553Z,100.00
2023-05-01T15:06:56.145Z,100.00
2023-05-01T15:08:57.772Z,100.00
2023-05-01T15:11:00.735Z,100.00
2023-05-01T15:13:02.234Z,100.00
2023-05-01T15:15:04.309Z,100.00
2023-05-01T15:17:05.905Z,100.00
2023-05-01T15:19:07.389Z,100.00
2023-05-01T15:21:08.879Z,100.00
2023-05-01T15:23:10.554Z,100.00
2023-05-01T15:25:12.058Z,100.00
2023-05-01T15:27:15.153Z,100.00
2023-05-01T15:29:16.619Z,100.00
2023-05-01T15:31:18.929Z,100.00
2023-05-01T15:33:21.000Z,99.32
2023-05-01T15:35:22.830Z,98.64
2023-05-01T15:37:24.345Z,95.25
2023-05-01T15:39:26.512Z,91.61
2023-05-01T15:41:28.176Z,87.64
2023-05-01T15:43:31.020Z,86.73
2023-05-01T15:45:33.609Z,84.84
2023-05-01T15:47:35.183Z,83.39
2023-05-01T15:49:36.685Z,84.43
2023-05-01T15:51:38.302Z,84.38
2023-05-01T15:53:39.832Z,86.25
2023-05-01T15:55:41.280Z,86.83
2023-05-01T15:57:45.749Z,87.56
2023-05-01T15:59:48.579Z,91.81
2023-05-01T16:01:52.909Z,90.40
2023-05-01T16:03:54.570Z,85.06
2023-05-01T16:05:56.238Z,86.46
2023-05-01T16:08:00.345Z,87.02
2023-05-01T16:10:02.465Z,85.97
2023-05-01T16:12:04.356Z,85.00
2023-05-01T16:14:09.278Z,86.40
2023-05-01T16:16:12.935Z,84.69
2023-05-01T16:18:18.077Z,84.51
2023-05-01T16:20:21.419Z,83.84
2023-05-01T16:22:22.909Z,83.61
2023-05-01T16:24:25.907Z,84.55
2023-05-01T16:26:29.728Z,83.63
2023-05-01T16:28:33.248Z,87.03
2023-05-01T16:30:34.753Z,89.29
2023-05-01T16:32:39.878Z,93.55
2023-05-01T16:34:42.705Z,94.69
2023-05-01T16:36:45.157Z,97.34
2023-05-01T16:38:47.436Z,93.78
2023-05-01T16:40:49.244Z,99.83
2023-05-01T16:42:51.114Z,90.56
2023-05-01T16:44:52.651Z,93.65
2023-05-01T16:46:55.785Z,92.13
2023-05-01T16:48:58.855Z,89.96
2023-05-01T16:51:00.354Z,94.48
2023-05-01T16:53:01.965Z,96.06
2023-05-01T16:55:03.719Z,91.95
2023-05-01T16:57:05.274Z,90.66
2023-05-01T16:59:06.904Z,90.40
2023-05-01T17:01:08.454Z,91.44
2023-05-01T17:03:10.239Z,90.94
2023-05-01T17:05:13.159Z,93.77
2023-05-01T17:07:14.654Z,91.64
2023-05-01T17:09:16.757Z,94.15
2023-05-01T17:11:18.544Z,96.52
2023-05-01T17:13:20.596Z,96.86
2023-05-01T17:15:22.071Z,97.31
2023-05-01T17:17:23.853Z,94.77
2023-05-01T17:19:25.597Z,90.64
2023-05-01T17:21:28.438Z,90.50
2023-05-01T17:23:30.063Z,90.39
2023-05-01T17:25:31.544Z,88.97
2023-05-01T17:27:33.328Z,84.25
2023-05-01T17:29:35.134Z,87.37
2023-05-01T17:31:36.633Z,86.57
2023-05-01T17:33:38.182Z,85.76
2023-05-01T17:35:39.729Z,86.75
2023-05-01T17:37:42.561Z,88.36
2023-05-01T17:39:44.077Z,88.34
2023-05-01T17:41:45.695Z,87.74
2023-05-01T17:43:47.673Z,89.13
2023-05-01T17:45:49.336Z,89.92
2023-05-01T17:47:50.998Z,89.37
2023-05-01T17:49:52.517Z,89.94
2023-05-01T17:51:54.049Z,90.31
2023-05-01T17:53:56.912Z,91.39
2023-05-01T17:55:58.406Z,92.64
2023-05-01T17:58:00.036Z,94.67
2023-05-01T18:00:02.029Z,96.39
2023-05-01T18:02:04.055Z,96.71
2023-05-01T18:04:05.928Z,95.58
2023-05-01T18:06:07.744Z,98.44
2023-05-01T18:08:09.667Z,100.00
2023-05-01T18:10:12.477Z,99.92
2023-05-01T18:12:14.698Z,100.00
2023-05-01T18:14:16.189Z,100.00
2023-05-01T18:16:17.710Z,100.00
2023-05-01T18:18:19.917Z,100.00
2023-05-01T18:20:21.454Z,100.00
2023-05-01T18:22:23.028Z,100.00
2023-05-01T18:24:25.594Z,100.00
2023-05-01T18:26:28.525Z,100.00
2023-05-01T18:28:30.298Z,100.00
2023-05-01T18:30:32.690Z,100.00
2023-05-01T18:32:46.856Z,100.00
2023-05-01T18:34:49.561Z,100.00
2023-05-01T18:36:52.934Z,100.00
2023-05-01T18:38:54.620Z,100.00
2023-05-01T18:40:56.111Z,100.00
2023-05-01T18:42:59.219Z,100.00
2023-05-01T18:45:00.735Z,100.00
2023-05-01T18:47:02.312Z,100.00
2023-05-01T18:49:03.789Z,100.00
2023-05-01T18:51:08.342Z,100.00
2023-05-01T18:53:10.307Z,100.00
2023-05-01T18:55:11.792Z,100.00
2023-05-01T18:57:13.339Z,100.00
2023-05-01T18:59:16.201Z,100.00
2023-05-01T19:01:18.444Z,100.00
2023-05-01T19:03:19.928Z,100.00
2023-05-01T19:05:21.838Z,100.00
2023-05-01T19:07:24.076Z,100.00
2023-05-01T19:09:25.523Z,100.00
2023-05-01T19:11:27.585Z,100.00
2023-05-01T19:13:29.061Z,100.00
2023-05-01T19:15:32.773Z,100.00
2023-05-01T19:17:34.312Z,100.00
2023-05-01T19:19:35.886Z,100.00
2023-05-01T19:21:37.363Z,100.00
2023-05-01T19:23:39.464Z,100.00
2023-05-01T19:25:40.999Z,100.00
2023-05-01T19:27:42.525Z,100.00
2023-05-01T19:29:44.468Z,100.00
2023-05-01T19:31:48.439Z,100.00
2023-05-01T19:33:50.707Z,100.00
2023-05-01T19:35:52.267Z,100.00
2023-05-01T19:37:54.283Z,100.00
2023-05-01T19:39:55.808Z,100.00
2023-05-01T19:41:58.250Z,100.00
2023-05-01T19:44:00.301Z,100.00
2023-05-01T19:46:05.775Z,100.00
2023-05-01T19:48:09.020Z,100.00
2023-05-01T19:50:11.255Z,100.00
2023-05-01T19:52:12.713Z,100.00
2023-05-01T19:54:14.193Z,100.00
2023-05-01T19:56:16.427Z,100.00
2023-05-01T19:58:18.313Z,100.00
2023-05-01T20:00:22.586Z,100.00
2023-05-01T20:02:24.842Z,100.00
2023-05-01T20:04:28.919Z,100.00
2023-05-01T20:06:30.532Z,100.00
2023-05-01T20:08:32.578Z,100.00
2023-05-01T20:10:34.089Z,100.00
2023-05-01T20:12:35.586Z,100.00
2023-05-01T20:14:37.148Z,100.00
2023-05-01T20:16:38.737Z,100.00
2023-05-01T20:18:40.264Z,100.00
2023-05-01T20:20:43.830Z,100.00
2023-05-01T20:22:45.960Z,100.00
2023-05-01T20:24:47.476Z,100.00
2023-05-01T20:26:49.779Z,100.00
2023-05-01T20:28:51.258Z,100.00
2023-05-01T20:30:53.683Z,100.00
2023-05-01T20:32:55.936Z,100.00
2023-05-01T20:34:58.885Z,100.00
2023-05-01T20:37:01.783Z,100.00
2023-05-01T20:39:05.596Z,100.00
2023-05-01T20:41:06.969Z,100.00
2023-05-01T20:43:09.145Z,100.00
2023-05-01T20:45:10.678Z,100.00
2023-05-01T20:47:12.158Z,100.00
2023-05-01T20:49:15.888Z,100.00
2023-05-01T20:51:17.681Z,100.00
2023-05-01T20:53:20.537Z,100.00
2023-05-01T20:55:25.182Z,100.00
2023-05-01T20:57:27.300Z,100.00
2023-05-01T20:59:28.883Z,100.00
2023-05-01T21:01:30.767Z,100.00
2023-05-01T21:03:32.671Z,100.00
2023-05-01T21:05:34.794Z,100.00
2023-05-01T21:07:37.700Z,100.00
2023-05-01T21:09:45.044Z,100.00
2023-05-01T21:11:46.640Z,100.00
2023-05-01T21:13:48.111Z,100.00
2023-05-01T21:15:50.681Z,100.00
2023-05-01T21:17:52.376Z,100.00
2023-05-01T21:19:55.260Z,100.00
2023-05-01T21:21:56.747Z,100.00
2023-05-01T21:23:58.941Z,100.00
2023-05-01T21:26:01.879Z,100.00
2023-05-01T21:28:03.577Z,100.00
2023-05-01T21:30:06.563Z,100.00
2023-05-01T21:32:08.503Z,100.00
2023-05-01T21:34:10.460Z,100.00
2023-05-01T21:36:13.657Z,100.00
2023-05-01T21:38:16.908Z,100.00
2023-05-01T21:40:18.918Z,100.00
2023-05-01T21:42:21.806Z,100.00
2023-05-01T21:44:30.481Z,100.00
2023-05-01T21:46:32.117Z,100.00
2023-05-01T21:48:34.596Z,100.00
2023-05-01T21:50:37.613Z,100.00
2023-05-01T21:52:39.385Z,100.00
2023-05-01T21:54:40.839Z,100.00
2023-05-01T21:56:43.319Z,100.00
2023-05-01T21:58:46.167Z,100.00
2023-05-01T22:00:47.708Z,100.00
2023-05-01T22:02:51.806Z,100.00
2023-05-01T22:04:54.353Z,100.00
2023-05-01T22:06:55.794Z,100.00
2023-05-01T22:08:57.245Z,100.00
2023-05-01T22:10:59.635Z,100.00
2023-05-01T22:13:01.092Z,100.00
2023-05-01T22:15:04.652Z,100.00
2023-05-01T22:17:07.939Z,100.00
2023-05-01T22:19:10.146Z,100.00
2023-05-01T22:21:11.602Z,100.00
2023-05-01T22:23:13.865Z,100.00
2023-05-01T22:25:15.309Z,100.00
2023-05-01T22:27:17.436Z,100.00
2023-05-01T22:29:20.076Z,100.00
2023-05-01T22:31:24.070Z,100.00
2023-05-01T22:33:26.532Z,100.00
2023-05-01T22:35:27.984Z,100.00
2023-05-01T22:37:30.181Z,100.00
2023-05-01T22:39:32.503Z,100.00
2023-05-01T22:41:34.889Z,100.00
2023-05-01T22:43:37.099Z,100.00
2023-05-01T22:45:38.631Z,100.00
2023-05-01T22:47:41.603Z,100.00
2023-05-01T22:49:43.159Z,100.00
2023-05-01T22:51:44.651Z,100.00
2023-05-01T22:53:47.120Z,100.00
2023-05-01T22:55:49.201Z,100.00
2023-05-01T22:57:51.340Z,100.00
2023-05-01T22:59:53.622Z,100.00
2023-05-01T23:01:55.216Z,100.00
2023-05-01T23:03:58.276Z,100.00
2023-05-01T23:06:00.465Z,100.00
2023-05-01T23:08:01.917Z,100.00
2023-05-01T23:10:03.788Z,100.00
2023-05-01T23:12:06.560Z,100.00
2023-05-01T23:14:08.014Z,100.00
2023-05-01T23:16:09.505Z,100.00
2023-05-01T23:18:14.717Z,100.00
2023-05-01T23:20:21.621Z,100.00
2023-05-01T23:22:23.769Z,100.00
2023-05-01T23:24:25.699Z,100.00
2023-05-01T23:26:28.081Z,100.00
2023-05-01T23:28:29.546Z,100.00
2023-05-01T23:30:31.729Z,100.00
2023-05-01T23:32:34.371Z,100.00
2023-05-01T23:34:35.901Z,100.00
2023-05-01T23:36:38.705Z,100.00
2023-05-01T23:38:41.282Z,100.00
2023-05-01T23:40:43.081Z,100.00
2023-05-01T23:42:45.166Z,100.00
2023-05-01T23:44:47.300Z,100.00
2023-05-01T23:46:48.811Z,100.00
2023-05-01T23:48:50.964Z,100.00
2023-05-01T23:50:52.616Z,100.00
2023-05-01T23:52:56.585Z,100.00
2023-05-01T23:54:58.089Z,100.00
2023-05-01T23:57:00.248Z,100.00
2023-05-01T23:59:02.131Z,100.00
